Time;durP1;ratioP1;P1;durP2;ratioP2;P2;SDS_P1;SDS_P2;PMS_P1;PMS_P2;Temp;Humidity;BMP_temperature;BMP_pressure;BME280_temperature;BME280_humidity;BME280_pressure;Samples;Min_cycle;Max_cycle;Signal;HPM_P1;HPM_P2
2023/03/27 09:57:32;;;;;;;7.77;4.73;;;0.80;99.90;;;;;;5132320;27;20275;-75
2023/03/27 10:17:03;;;;;;;6.67;3.30;;;0.90;99.90;;;;;;5111884;27;20560;-76
2023/03/27 10:38:18;;;;;;;9.27;4.57;;;1.00;99.90;;;;;;5091251;28;20538;-75
2023/03/27 10:42:48;;;;;;;15.60;8.97;;;1.20;99.90;;;;;;5132101;27;20283;-74
2023/03/27 10:47:23;;;;;;;8.53;4.20;;;1.10;99.90;;;;;;5132405;27;20614;-75
2023/03/27 11:06:58;;;;;;;8.17;5.10;;;0.80;99.90;;;;;;5132389;27;20267;-75
2023/03/27 11:12:23;;;;;;;9.10;3.90;;;0.90;99.90;;;;;;5132235;27;20298;-74
2023/03/27 11:21:07;;;;;;;8.50;3.43;;;0.60;99.90;;;;;;5132847;27;20609;-75
2023/03/27 11:26:16;;;;;;;7.00;4.30;;;1.10;99.90;;;;;;5132752;27;20733;-75
2023/03/27 11:30:52;;;;;;;10.30;4.70;;;1.10;99.90;;;;;;5132918;27;20270;-75
2023/03/27 11:33:31;;;;;;;12.60;5.27;;;1.40;99.90;;;;;;5124822;28;20436;-75
2023/03/27 11:36:11;;;;;;;14.83;4.80;;;1.60;99.90;;;;;;5131969;27;20529;-75
2023/03/27 11:38:44;;;;;;;7.73;4.50;;;2.10;99.90;;;;;;5130581;28;20408;-75
2023/03/27 11:41:13;;;;;;;16.97;4.63;;;2.60;99.90;;;;;;5131732;27;20389;-75
2023/03/27 11:43:39;;;;;;;10.63;6.13;;;3.20;99.90;;;;;;5131472;27;20420;-75
2023/03/27 11:46:42;;;;;;;9.63;5.63;;;3.50;99.90;;;;;;5131940;27;20397;-75
2023/03/27 11:49:25;;;;;;;8.67;4.40;;;3.40;99.90;;;;;;5131401;28;20448;-75
2023/03/27 11:52:14;;;;;;;17.50;7.67;;;3.40;99.90;;;;;;5130097;28;20522;-76
2023/03/27 11:55:23;;;;;;;17.27;8.90;;;3.50;99.90;;;;;;5131764;27;20476;-75
2023/03/27 11:58:14;;;;;;;16.00;5.53;;;3.90;99.90;;;;;;5130081;28;20229;-75
2023/03/27 12:00:47;;;;;;;14.53;5.13;;;4.10;99.90;;;;;;5131399;27;20162;-76
2023/03/27 12:03:54;;;;;;;8.80;5.30;;;3.80;99.90;;;;;;5131102;27;20439;-76
2023/03/27 12:06:32;;;;;;;14.73;6.00;;;3.70;99.90;;;;;;5088350;28;20691;-76
2023/03/27 12:09:04;;;;;;;11.17;5.20;;;3.70;99.90;;;;;;5088559;28;20218;-76
2023/03/27 12:11:33;;;;;;;11.60;5.23;;;4.40;99.90;;;;;;5114133;27;20193;-76
2023/03/27 12:14:20;;;;;;;15.33;7.03;;;6.10;99.90;;;;;;5129907;28;20184;-75
2023/03/27 12:16:59;;;;;;;10.70;4.67;;;6.80;99.90;;;;;;5129920;28;20164;-75
2023/03/27 12:19:45;;;;;;;12.27;6.20;;;5.30;99.90;;;;;;5132142;27;20516;-76
2023/03/27 12:22:46;;;;;;;11.33;5.23;;;4.40;99.90;;;;;;5131135;27;20201;-76
2023/03/27 12:25:27;;;;;;;10.23;4.40;;;3.80;99.90;;;;;;5130930;28;20159;-76
2023/03/27 12:28:00;;;;;;;10.17;4.60;;;3.40;99.90;;;;;;5130688;27;20164;-75
2023/03/27 12:30:40;;;;;;;11.93;4.87;;;3.30;99.90;;;;;;5131019;27;20181;-75
2023/03/27 12:33:44;;;;;;;10.10;4.77;;;3.40;99.90;;;;;;5129390;28;20229;-76
2023/03/27 12:36:14;;;;;;;7.40;4.30;;;3.60;99.90;;;;;;5129416;28;20181;-75
2023/03/27 12:38:42;;;;;;;7.20;3.37;;;4.30;99.90;;;;;;5131198;27;20242;-76
2023/03/27 12:41:09;;;;;;;10.13;3.40;;;6.10;99.90;;;;;;5119248;27;20217;-76
2023/03/27 12:43:39;;;;;;;7.20;3.53;;;6.90;99.90;;;;;;5115434;28;20232;-76
2023/03/27 12:46:06;;;;;;;8.93;4.07;;;7.30;99.90;;;;;;5115476;28;20179;-75
2023/03/27 12:48:32;;;;;;;6.00;3.20;;;6.80;99.90;;;;;;5115426;28;20676;-76
2023/03/27 12:50:58;;;;;;;9.23;4.30;;;6.10;99.90;;;;;;5116956;28;20346;-76
2023/03/27 12:53:29;;;;;;;6.30;3.30;;;5.80;99.90;;;;;;5116543;28;20192;-76
2023/03/27 12:56:15;;;;;;;11.13;4.23;;;5.40;99.90;;;;;;5115369;28;20237;-76
2023/03/27 12:58:44;;;;;;;9.23;4.40;;;5.00;99.90;;;;;;5115093;28;20225;-76
2023/03/27 13:01:16;;;;;;;8.63;3.27;;;4.70;99.90;;;;;;5116944;28;20172;-76
2023/03/27 13:03:44;;;;;;;6.47;3.30;;;4.20;99.90;;;;;;5116316;28;20260;-76
2023/03/27 13:06:22;;;;;;;4.60;2.60;;;3.90;99.90;;;;;;5116714;28;20172;-75
2023/03/27 13:09:18;;;;;;;6.37;3.20;;;3.60;99.90;;;;;;5116710;28;20247;-76
2023/03/27 13:12:03;;;;;;;2.63;2.17;;;3.30;99.90;;;;;;5116556;28;20196;-76
2023/03/27 13:14:38;;;;;;;3.37;2.20;;;3.00;99.90;;;;;;5116738;28;20162;-76
2023/03/27 13:17:42;;;;;;;5.37;2.47;;;3.00;99.90;;;;;;5116176;28;20260;-76
2023/03/27 13:20:26;;;;;;;7.30;4.13;;;3.20;99.90;;;;;;5093718;28;20212;-77
2023/03/27 13:22:55;;;;;;;8.03;2.67;;;3.20;99.90;;;;;;5114850;28;20210;-75
2023/03/27 13:25:46;;;;;;;3.87;3.17;;;3.20;99.90;;;;;;5114975;28;20279;-76
2023/03/27 13:28:33;;;;;;;5.43;2.43;;;3.40;99.90;;;;;;5114613;28;20213;-76
2023/03/27 13:31:01;;;;;;;4.90;2.27;;;3.60;99.90;;;;;;5114818;28;20200;-75
2023/03/27 13:33:29;;;;;;;10.47;3.43;;;3.90;99.90;;;;;;5115870;28;20190;-76
2023/03/27 13:36:11;;;;;;;6.73;2.83;;;4.60;99.90;;;;;;5115856;28;20173;-76
2023/03/27 13:38:51;;;;;;;4.13;2.50;;;4.70;99.90;;;;;;5114834;28;20619;-75
2023/03/27 13:41:45;;;;;;;4.20;2.43;;;5.30;99.90;;;;;;5115845;28;20174;-76
2023/03/27 13:44:27;;;;;;;5.57;2.37;;;4.60;99.90;;;;;;5114444;28;20651;-76
2023/03/27 13:47:27;;;;;;;4.03;2.73;;;4.20;99.90;;;;;;5114787;28;20602;-78
2023/03/27 13:50:21;;;;;;;7.93;3.30;;;4.00;99.90;;;;;;5115569;28;20190;-76
2023/03/27 13:53:23;;;;;;;5.33;3.30;;;4.00;99.90;;;;;;5114487;28;20553;-76
2023/03/27 13:56:13;;;;;;;6.50;2.60;;;4.20;99.90;;;;;;5114202;28;20178;-75
2023/03/27 13:58:57;;;;;;;7.87;3.07;;;4.20;99.90;;;;;;5115798;28;20190;-76
2023/03/27 14:01:48;;;;;;;8.67;3.20;;;4.10;99.90;;;;;;5115658;28;20166;-76
2023/03/27 14:04:23;;;;;;;4.10;2.30;;;3.50;99.90;;;;;;5113699;28;20225;-75
2023/03/27 14:07:13;;;;;;;10.00;4.93;;;3.90;99.90;;;;;;5114936;28;20182;-75
2023/03/27 14:10:03;;;;;;;12.00;5.00;;;4.60;99.90;;;;;;5114664;28;20597;-76
2023/03/27 14:12:59;;;;;;;9.57;5.13;;;6.90;99.90;;;;;;5114469;28;20531;-76
2023/03/27 14:15:50;;;;;;;12.83;6.20;;;7.60;99.90;;;;;;5114260;28;20193;-76
2023/03/27 14:18:54;;;;;;;6.93;3.97;;;7.60;99.90;;;;;;5115027;28;20157;-76
2023/03/27 14:21:22;;;;;;;4.30;3.30;;;8.30;99.90;;;;;;5114846;28;20171;-76
2023/03/27 14:24:16;;;;;;;6.27;2.33;;;8.80;99.90;;;;;;5113365;28;20567;-76
2023/03/27 14:26:44;;;;;;;7.27;2.87;;;9.30;99.90;;;;;;5115055;28;20224;-76
2023/03/27 14:29:10;;;;;;;6.03;3.47;;;8.70;96.70;;;;;;5113507;28;20219;-76
2023/03/27 14:31:37;;;;;;;13.77;7.50;;;8.60;96.30;;;;;;5114701;28;20537;-76
2023/03/27 14:34:14;;;;;;;16.63;9.57;;;8.50;96.20;;;;;;5114659;28;20175;-76
2023/03/27 14:36:46;;;;;;;8.07;3.00;;;8.30;95.10;;;;;;5115233;28;20621;-76
2023/03/27 14:39:15;;;;;;;7.87;4.40;;;7.10;94.40;;;;;;5113457;28;20587;-75
2023/03/27 14:42:14;;;;;;;10.53;5.83;;;6.20;98.00;;;;;;5114748;28;20186;-77
2023/03/27 14:44:40;;;;;;;15.67;7.40;;;5.60;99.90;;;;;;5114524;28;20183;-76
2023/03/27 14:47:12;;;;;;;9.73;5.50;;;5.00;99.90;;;;;;5114613;28;20186;-76
2023/03/27 14:49:44;;;;;;;7.67;3.07;;;4.60;99.90;;;;;;5114942;28;20508;-76
2023/03/27 14:52:16;;;;;;;5.40;2.40;;;5.00;99.90;;;;;;5114626;28;20198;-76
2023/03/27 14:54:43;;;;;;;5.63;2.00;;;5.40;99.90;;;;;;5114442;28;20167;-76
2023/03/27 14:57:12;;;;;;;10.00;7.23;;;6.40;99.90;;;;;;5113124;28;20178;-76
2023/03/27 14:59:41;;;;;;;5.13;3.20;;;7.10;99.60;;;;;;5114395;28;20186;-76
2023/03/27 15:02:29;;;;;;;6.03;2.67;;;6.60;98.00;;;;;;5112808;28;20244;-76
2023/03/27 15:04:59;;;;;;;6.27;3.07;;;7.10;96.00;;;;;;5114235;28;20160;-76
2023/03/27 15:07:29;;;;;;;6.90;2.77;;;7.00;96.50;;;;;;5112864;28;20614;-76
2023/03/27 15:10:08;;;;;;;8.33;2.40;;;6.30;97.70;;;;;;5112962;28;20202;-76
2023/03/27 15:12:35;;;;;;;5.57;2.90;;;6.50;97.90;;;;;;5112631;28;20664;-76
2023/03/27 15:15:02;;;;;;;4.20;1.50;;;5.90;98.60;;;;;;5114097;28;20214;-76
2023/03/27 15:17:29;;;;;;;7.37;3.27;;;5.00;99.70;;;;;;5112998;28;20175;-76
2023/03/27 15:20:13;;;;;;;5.63;1.70;;;4.40;99.90;;;;;;5114110;28;20180;-76
2023/03/27 15:22:54;;;;;;;6.57;3.20;;;4.00;99.90;;;;;;5114002;28;20250;-76
2023/03/27 15:25:45;;;;;;;3.20;2.33;;;3.80;99.90;;;;;;5114030;28;20169;-76
2023/03/27 15:28:28;;;;;;;7.20;2.07;;;3.70;99.90;;;;;;5113876;28;20212;-76
2023/03/27 15:30:57;;;;;;;4.30;2.10;;;3.60;99.90;;;;;;5113987;28;20615;-76
2023/03/27 15:34:00;;;;;;;4.43;1.93;;;3.60;99.90;;;;;;5114012;28;20226;-76
2023/03/27 15:36:31;;;;;;;3.87;2.50;;;3.70;99.90;;;;;;5107111;28;20188;-76
2023/03/27 15:39:02;;;;;;;4.83;2.10;;;3.60;99.90;;;;;;5113979;28;20163;-76
2023/03/27 15:41:31;;;;;;;5.50;2.70;;;3.70;99.90;;;;;;5113824;28;20702;-76
2023/03/27 15:44:04;;;;;;;6.43;2.10;;;3.60;99.90;;;;;;5112447;28;20669;-77
2023/03/27 15:46:54;;;;;;;3.43;2.30;;;3.80;99.90;;;;;;5114140;28;20439;-76
2023/03/27 15:49:41;;;;;;;21.27;11.20;;;3.90;99.90;;;;;;5112471;28;20202;-76
2023/03/27 15:52:27;;;;;;;10.37;6.60;;;4.10;99.90;;;;;;5113891;28;20195;-76
2023/03/27 15:54:54;;;;;;;6.60;3.40;;;4.10;99.90;;;;;;5113782;28;20171;-76
2023/03/27 15:57:20;;;;;;;9.17;2.40;;;4.00;99.90;;;;;;5114064;28;20246;-76
2023/03/27 15:59:46;;;;;;;4.47;3.43;;;4.00;99.90;;;;;;5113532;28;20218;-76
2023/03/27 16:02:15;;;;;;;6.03;3.10;;;4.10;99.90;;;;;;5113342;28;20248;-76
2023/03/27 16:04:56;;;;;;;9.30;3.20;;;4.10;99.90;;;;;;5113923;28;20180;-76
2023/03/27 16:07:30;;;;;;;9.43;3.60;;;4.10;99.90;;;;;;5113363;28;20177;-76
2023/03/27 16:10:01;;;;;;;8.30;3.53;;;3.90;99.90;;;;;;5112629;28;20567;-76
2023/03/27 16:12:48;;;;;;;6.20;2.10;;;3.90;99.90;;;;;;5113666;28;20448;-76
2023/03/27 16:15:36;;;;;;;4.17;2.10;;;3.80;99.90;;;;;;5092905;28;20222;-76
2023/03/27 16:18:17;;;;;;;4.17;2.83;;;3.70;99.90;;;;;;5117698;28;20397;-76
2023/03/27 16:20:43;;;;;;;7.43;3.13;;;3.70;99.90;;;;;;5116092;28;20636;-77
2023/03/27 16:23:09;;;;;;;6.63;3.40;;;3.60;99.90;;;;;;5117197;28;20191;-77
2023/03/27 16:25:36;;;;;;;5.07;4.27;;;3.50;99.90;;;;;;5116245;28;20410;-77
2023/03/27 16:28:01;;;;;;;13.83;10.37;;;3.50;99.90;;;;;;5117532;28;20641;-76
